Ontario International Airport
KONT : now visible

Airfield :











YOU CAN JOIN US ON...

 
LOGIN :

Register | Disclaimer

   EN    FR    IT 

 









Legend :    VFR   Marginal VFR   IFR   Intensive IFR   Very Intensive IFR
Visi :
Ceiling :
>= 8 km
>= 3000ft
5 to 8 km
1000 to 3000 ft
1500m to 5 km
500 to 1000 ft
800 to 1500m
200 to 500 ft
< 800m
< 200 ft
Symbols :   Thunderstorms  Fog  Heavy snow  Heavy precipitations  Wind > 20 kt






- Airport Elevation : 944 ft
- IATA code : ONT


KONT - Ontario International

CURRENT METAR :
  • 220853Z 00000KT 10SM CLR 21/07 A2980 RMK AO2 SLP072 T02060067 50002

EXPIRED METARs :
  • 220753Z 28003KT 10SM CLR 21/07 A2981 RMK AO2 SLP076 T02110067 403390161
  • 220653Z 24003KT 10SM CLR 21/09 A2980 RMK AO2 SLP074 T02110094
  • 220553Z 25005KT 10SM CLR 23/08 A2979 RMK AO2 SLP074 T02280083 10322 20228 53018

TAF KONT
Valid from the 22 at 06:00 until the 23 at 12:00 UTC


220520Z 2206/2312 23004KT P6SM SKC
FM222100 25013KT P6SM SKC
KZLA FIR / North America



MET'MAP, your aeronautical weather chart ! - Copyright ORBIFLY December 2007 - Disclaimer

ORBIFLY MET'MAP TEAM :

Programming & Development : Alexandra Zaïnal
Original concept : Baudouin d'Aumeries
Technical & hardware support : Manuel Goepfert
Assistance : Marc-Olivier Méhu




SOURCES & CREDITS :

   NOAA       Earth
Advisory